Time;durP1;ratioP1;P1;durP2;ratioP2;P2;SDS_P1;SDS_P2;PMS_P1;PMS_P2;Temp;Humidity;BMP_temperature;BMP_pressure;BME280_temperature;BME280_humidity;BME280_pressure;Samples;Min_cycle;Max_cycle;Signal;HPM_P1;HPM_P2
2022/05/31 00:08:20;;;;;;;13.4;18.9;;;;;;;-133;98.8;65240;;;;
2022/05/31 00:18:20;;;;;;;13.4;18.9;;;;;;;-133;99.5;65240;;;;
2022/05/31 00:28:20;;;;;;;13.4;18.9;;;;;;;-133;98.6;65240;;;;
2022/05/31 00:39:20;;;;;;;14.1;16.9;;;;;;;-133;96.9;65240;;;;
2022/05/31 00:49:20;;;;;;;14.1;16.9;;;;;;;-133;98;65240;;;;
2022/05/31 01:00:20;;;;;;;14.1;16.9;;;;;;;-133;97.7;65240;;;;
2022/05/31 01:11:20;;;;;;;17.7;20.2;;;;;;;-133;97.7;65240;;;;
2022/05/31 01:21:20;;;;;;;17.7;20.2;;;;;;;-133;98.3;65240;;;;
2022/05/31 01:31:20;;;;;;;17.7;20.2;;;;;;;-133;98.7;65240;;;;
2022/05/31 01:42:20;;;;;;;17.1;20.2;;;;;;;-133;99;65240;;;;
2022/05/31 01:53:20;;;;;;;17.1;20.2;;;;;;;-133;99.4;65240;;;;
2022/05/31 02:03:20;;;;;;;17.1;20.2;;;;;;;-133;99.7;65240;;;;
2022/05/31 02:14:20;;;;;;;16.6;18.6;;;;;;;-133;100;65240;;;;
2022/05/31 02:25:20;;;;;;;16.6;18.6;;;;;;;-133;100;65240;;;;
2022/05/31 02:36:20;;;;;;;16.6;18.6;;;;;;;-133;100;65240;;;;
2022/05/31 02:46:20;;;;;;;14.3;16.9;;;;;;;-133;100;65240;;;;
2022/05/31 02:57:20;;;;;;;14.3;16.9;;;;;;;-133;100;65240;;;;
2022/05/31 03:07:20;;;;;;;11.3;13.8;;;;;;;-133;100;65240;;;;
2022/05/31 03:17:20;;;;;;;11.3;13.8;;;;;;;-133;100;65240;;;;
2022/05/31 03:28:20;;;;;;;11.3;13.8;;;;;;;-133;100;65240;;;;
2022/05/31 03:39:20;;;;;;;14.9;18.6;;;;;;;-133;100;65240;;;;
2022/05/31 03:49:20;;;;;;;14.9;18.6;;;;;;;-133;100;65230;;;;
2022/05/31 04:00:20;;;;;;;14.9;18.6;;;;;;;-133;100;65230;;;;
2022/05/31 04:11:21;;;;;;;15.6;18.6;;;;;;;-133;100;65240;;;;
2022/05/31 04:22:20;;;;;;;15.6;18.6;;;;;;;-133;100;65240;;;;
2022/05/31 04:32:20;;;;;;;15.6;18.6;;;;;;;-133;100;65230;;;;
2022/05/31 04:42:20;;;;;;;15.2;21;;;;;;;-133;99.3;65230;;;;
2022/05/31 04:53:20;;;;;;;15.2;21;;;;;;;-133;97;65240;;;;
2022/05/31 05:04:20;;;;;;;15.2;21;;;;;;;-133;95.1;65240;;;;
2022/05/31 05:15:20;;;;;;;13.6;17.2;;;;;;;-133;91.9;65230;;;;
2022/05/31 05:25:20;;;;;;;13.6;17.2;;;;;;;-133;88.9;65230;;;;
2022/05/31 05:35:20;;;;;;;13.6;17.2;;;;;;;-133;88.6;65230;;;;
2022/05/31 05:45:20;;;;;;;13.7;19.8;;;;;;;-133;85.4;65230;;;;
2022/05/31 05:56:20;;;;;;;13.7;19.8;;;;;;;-133;84.9;65230;;;;
2022/05/31 06:07:20;;;;;;;13.3;18.2;;;;;;;-133;84.1;65230;;;;
2022/05/31 06:17:20;;;;;;;13.3;18.2;;;;;;;-133;80.1;65220;;;;
2022/05/31 06:28:20;;;;;;;13.3;18.2;;;;;;;-133;75.4;65230;;;;
2022/05/31 06:38:20;;;;;;;11.2;13.5;;;;;;;-133;75.4;65220;;;;
2022/05/31 06:49:20;;;;;;;11.2;13.5;;;;;;;-133;73.5;65220;;;;
2022/05/31 06:59:20;;;;;;;11.2;13.5;;;;;;;-133;70.9;65220;;;;
2022/05/31 07:10:20;;;;;;;8.9;12.4;;;;;;;-133;68.5;65220;;;;
2022/05/31 07:20:20;;;;;;;8.9;12.4;;;;;;;-133;67.2;65220;;;;
2022/05/31 07:30:21;;;;;;;8.9;12.4;;;;;;;-133;66.2;65210;;;;
2022/05/31 07:41:20;;;;;;;7.8;10.2;;;;;;;-133;63.1;65220;;;;
2022/05/31 07:51:20;;;;;;;7.8;10.2;;;;;;;-133;63.7;65210;;;;
2022/05/31 08:01:22;;;;;;;7.8;10.2;;;;;;;-133;61.3;65210;;;;
2022/05/31 08:12:20;;;;;;;5.8;8.9;;;;;;;-133;60.7;65220;;;;
2022/05/31 08:22:20;;;;;;;5.8;8.9;;;;;;;-133;60;65220;;;;
2022/05/31 08:32:20;;;;;;;5.8;8.9;;;;;;;-133;60.1;65210;;;;
2022/05/31 08:43:20;;;;;;;6.4;8.6;;;;;;;-133;59;65220;;;;
2022/05/31 09:05:20;;;;;;;6.4;8.6;;;;;;;-133;51.1;65220;;;;
2022/05/31 09:15:20;;;;;;;3.7;8;;;;;;;-133;50.7;65210;;;;
2022/05/31 09:26:20;;;;;;;3.7;8;;;;;;;-133;47.4;65210;;;;
2022/05/31 09:36:20;;;;;;;2.7;5.3;;;;;;;-133;47.3;65220;;;;
2022/05/31 09:47:20;;;;;;;2.7;5.3;;;;;;;-133;46.2;65210;;;;
2022/05/31 09:58:20;;;;;;;2.7;5.3;;;;;;;-133;45;65210;;;;
2022/05/31 10:08:20;;;;;;;2.6;5.5;;;;;;;-133;43.5;65210;;;;
2022/05/31 10:18:20;;;;;;;2.6;5.5;;;;;;;-133;44.2;65210;;;;
2022/05/31 10:28:20;;;;;;;2.6;5.5;;;;;;;-133;42.8;65210;;;;
2022/05/31 10:38:20;;;;;;;2.5;4.4;;;;;;;-133;44.4;65210;;;;
2022/05/31 10:49:20;;;;;;;2.5;4.4;;;;;;;-133;44.2;65210;;;;
2022/05/31 10:59:20;;;;;;;2.5;4.4;;;;;;;-133;45.1;65210;;;;
2022/05/31 11:19:20;;;;;;;2.4;5;;;;;;;-133;46.4;65210;;;;
2022/05/31 11:29:20;;;;;;;2.4;5;;;;;;;-133;44.5;65210;;;;
2022/05/31 11:40:21;;;;;;;2.6;4.9;;;;;;;-133;45.6;65210;;;;
2022/05/31 11:51:20;;;;;;;2.6;4.9;;;;;;;-133;44.8;65210;;;;
2022/05/31 12:01:20;;;;;;;2.6;4.9;;;;;;;-133;44.9;65210;;;;
2022/05/31 12:11:20;;;;;;;2.3;5.2;;;;;;;-133;44.7;65210;;;;
2022/05/31 12:22:21;;;;;;;2.3;5.2;;;;;;;-133;43.3;65210;;;;
2022/05/31 12:32:20;;;;;;;2.3;5.2;;;;;;;-133;44.3;65210;;;;
2022/05/31 12:42:20;;;;;;;2.6;4.9;;;;;;;-133;42;65220;;;;
2022/05/31 12:52:29;;;;;;;2.6;4.9;;;;;;;-133;43.2;65210;;;;
2022/05/31 13:02:20;;;;;;;2.6;4.9;;;;;;;-133;42.2;65220;;;;
2022/05/31 13:23:20;;;;;;;2.2;4.4;;;;;;;-133;42.8;65210;;;;
2022/05/31 13:33:20;;;;;;;2.2;4.4;;;;;;;-133;41.6;65210;;;;
2022/05/31 13:44:20;;;;;;;2.1;4.3;;;;;;;-133;41;65220;;;;
2022/05/31 13:54:21;;;;;;;2.1;4.3;;;;;;;-133;41.3;65220;;;;
2022/05/31 14:05:20;;;;;;;2.1;4.3;;;;;;;-133;42.6;65220;;;;
2022/05/31 14:15:20;;;;;;;2.6;5.2;;;;;;;-133;44.4;65220;;;;
2022/05/31 14:26:21;;;;;;;2.6;5.2;;;;;;;-133;41.3;65220;;;;
2022/05/31 14:36:20;;;;;;;10.4;13.7;;;;;;;-133;44.3;65220;;;;
2022/05/31 14:47:20;;;;;;;10.4;13.7;;;;;;;-133;41.7;65220;;;;
2022/05/31 14:57:21;;;;;;;10.4;13.7;;;;;;;-133;42.6;65220;;;;
2022/05/31 15:08:20;;;;;;;3.4;5.8;;;;;;;-133;43.5;65220;;;;
2022/05/31 15:19:25;;;;;;;3.4;5.8;;;;;;;-133;41.9;65220;;;;
2022/05/31 15:28:20;;;;;;;3.4;5.8;;;;;;;-133;41.4;65220;;;;
2022/05/31 15:39:20;;;;;;;2.6;6.1;;;;;;;-133;42.8;65230;;;;
2022/05/31 15:49:21;;;;;;;2.6;6.1;;;;;;;-133;45;65220;;;;
2022/05/31 15:59:21;;;;;;;2.6;6.1;;;;;;;-133;46.1;65230;;;;
2022/05/31 16:10:20;;;;;;;3.3;6.4;;;;;;;-133;48.1;65220;;;;
2022/05/31 16:21:20;;;;;;;3.3;6.4;;;;;;;-133;47.8;65220;;;;
2022/05/31 16:31:20;;;;;;;3.3;6.4;;;;;;;-133;43.9;65230;;;;
2022/05/31 16:42:20;;;;;;;2.9;5.4;;;;;;;-133;40.6;65220;;;;
2022/05/31 16:52:20;;;;;;;2.9;5.4;;;;;;;-133;39.2;65220;;;;
2022/05/31 17:03:20;;;;;;;2.9;5.4;;;;;;;-133;38.3;65220;;;;
2022/05/31 17:14:25;;;;;;;2;5.2;;;;;;;-133;43.5;65230;;;;
2022/05/31 17:24:21;;;;;;;2;5.2;;;;;;;-133;45.4;65230;;;;
2022/05/31 17:35:21;;;;;;;2;5.2;;;;;;;-133;47.9;65230;;;;
2022/05/31 17:46:21;;;;;;;2.5;5.6;;;;;;;-133;50;65230;;;;
2022/05/31 17:56:20;;;;;;;2.5;5.6;;;;;;;-133;51.8;65230;;;;
2022/05/31 18:07:20;;;;;;;2.5;6.7;;;;;;;-133;56.2;65230;;;;
2022/05/31 18:17:21;;;;;;;2.5;6.7;;;;;;;-133;56.1;65230;;;;
2022/05/31 18:27:21;;;;;;;2.5;6.7;;;;;;;-133;56;65240;;;;
2022/05/31 18:38:08;;;;;;;2.9;6.6;;;;;;;-133;57.2;65240;;;;
2022/05/31 18:48:21;;;;;;;2.9;6.6;;;;;;;-133;59.7;65230;;;;
2022/05/31 18:58:21;;;;;;;2.9;6.6;;;;;;;-133;59.9;65240;;;;
2022/05/31 19:08:21;;;;;;;3;6.1;;;;;;;-133;63.1;65230;;;;
2022/05/31 19:18:21;;;;;;;3;6.1;;;;;;;-133;64;65240;;;;
2022/05/31 19:29:21;;;;;;;3;6.1;;;;;;;-133;66;65240;;;;
2022/05/31 19:40:21;;;;;;;3.9;6.2;;;;;;;-133;67.8;65240;;;;
2022/05/31 19:50:21;;;;;;;3.9;6.2;;;;;;;-133;69.5;65240;;;;
2022/05/31 20:00:21;;;;;;;3.9;6.2;;;;;;;-133;70.4;65240;;;;
2022/05/31 20:11:21;;;;;;;4.1;10.9;;;;;;;-133;74.6;65240;;;;
2022/05/31 20:22:21;;;;;;;4.1;10.9;;;;;;;-133;75;65240;;;;
2022/05/31 20:32:21;;;;;;;4.1;10.9;;;;;;;-133;76.6;65240;;;;
2022/05/31 20:43:21;;;;;;;4.4;7.4;;;;;;;-133;77.7;65240;;;;
2022/05/31 20:54:21;;;;;;;4.4;7.4;;;;;;;-133;79.3;65240;;;;
2022/05/31 21:04:21;;;;;;;4.4;7.4;;;;;;;-133;81.6;65240;;;;
2022/05/31 21:15:21;;;;;;;;;;;;;;;-133;;;;;;
2022/05/31 21:25:21;;;;;;;5.1;9.8;;;;;;;-133;79.9;65240;;;;
2022/05/31 21:36:21;;;;;;;7;12.4;;;;;;;-133;81.3;65240;;;;
2022/05/31 21:47:21;;;;;;;7;12.4;;;;;;;-133;83.3;65250;;;;
2022/05/31 21:57:21;;;;;;;7;12.4;;;;;;;-133;84;65240;;;;
2022/05/31 22:08:21;;;;;;;6.3;8.8;;;;;;;-133;85;65240;;;;
2022/05/31 22:18:21;;;;;;;6.3;8.8;;;;;;;-133;86.1;65240;;;;
2022/05/31 22:28:21;;;;;;;6.3;8.8;;;;;;;-133;86.6;65240;;;;
2022/05/31 22:39:21;;;;;;;6.5;9.2;;;;;;;-133;87.9;65240;;;;
2022/05/31 22:49:21;;;;;;;6.5;9.2;;;;;;;-133;89.3;65240;;;;
2022/05/31 23:00:21;;;;;;;6.5;9.2;;;;;;;-133;89.9;65240;;;;
2022/05/31 23:10:21;;;;;;;7.8;11.2;;;;;;;-133;89.7;65240;;;;
2022/05/31 23:21:21;;;;;;;7.8;11.2;;;;;;;-133;91.4;65250;;;;
2022/05/31 23:32:21;;;;;;;7.8;11.2;;;;;;;-133;91.6;65240;;;;
2022/05/31 23:42:21;;;;;;;6.6;10;;;;;;;-133;90.9;65240;;;;
2022/05/31 23:53:21;;;;;;;6.6;10;;;;;;;-133;91.6;65240;;;;
